sensor_id;sensor_type;location;lat;lon;timestamp;P1;P2;P0
70520;PMS5003;58442;52.716;23.560;2023-06-26T00:01:18;5;5;4
70520;PMS5003;58442;52.716;23.560;2023-06-26T00:03:28;5;5;4
70520;PMS5003;58442;52.716;23.560;2023-06-26T00:05:30;2;2;2
70520;PMS5003;58442;52.716;23.560;2023-06-26T00:07:31;3;3;3
70520;PMS5003;58442;52.716;23.560;2023-06-26T00:09:35;5;5;4
70520;PMS5003;58442;52.716;23.560;2023-06-26T00:11:43;4;4;3
70520;PMS5003;58442;52.716;23.560;2023-06-26T00:13:44;5;5;4
70520;PMS5003;58442;52.716;23.560;2023-06-26T00:15:46;4;4;3
70520;PMS5003;58442;52.716;23.560;2023-06-26T00:17:47;4;4;4
70520;PMS5003;58442;52.716;23.560;2023-06-26T00:19:58;5;5;4
70520;PMS5003;58442;52.716;23.560;2023-06-26T00:21:59;4;4;4
70520;PMS5003;58442;52.716;23.560;2023-06-26T00:24:01;3;3;3
70520;PMS5003;58442;52.716;23.560;2023-06-26T00:26:03;5;5;4
70520;PMS5003;58442;52.716;23.560;2023-06-26T00:28:13;4;4;3
70520;PMS5003;58442;52.716;23.560;2023-06-26T00:30:14;6;6;4
70520;PMS5003;58442;52.716;23.560;2023-06-26T00:32:15;5;5;3
70520;PMS5003;58442;52.716;23.560;2023-06-26T00:34:17;5;5;4
70520;PMS5003;58442;52.716;23.560;2023-06-26T00:36:28;6;6;5
70520;PMS5003;58442;52.716;23.560;2023-06-26T00:38:29;6;5;4
70520;PMS5003;58442;52.716;23.560;2023-06-26T00:40:30;4;4;3
70520;PMS5003;58442;52.716;23.560;2023-06-26T00:42:31;5;5;4
70520;PMS5003;58442;52.716;23.560;2023-06-26T00:44:42;3;3;3
70520;PMS5003;58442;52.716;23.560;2023-06-26T00:46:44;2;2;2
70520;PMS5003;58442;52.716;23.560;2023-06-26T00:48:46;5;5;3
70520;PMS5003;58442;52.716;23.560;2023-06-26T00:50:49;4;4;4
70520;PMS5003;58442;52.716;23.560;2023-06-26T00:52:57;5;5;4
70520;PMS5003;58442;52.716;23.560;2023-06-26T00:55:02;5;5;5
70520;PMS5003;58442;52.716;23.560;2023-06-26T00:57:04;4;4;4
70520;PMS5003;58442;52.716;23.560;2023-06-26T00:59:06;4;4;4
70520;PMS5003;58442;52.716;23.560;2023-06-26T01:01:12;3;3;3
70520;PMS5003;58442;52.716;23.560;2023-06-26T01:03:18;3;3;3
70520;PMS5003;58442;52.716;23.560;2023-06-26T01:05:20;3;3;2
70520;PMS5003;58442;52.716;23.560;2023-06-26T01:07:22;5;5;4
70520;PMS5003;58442;52.716;23.560;2023-06-26T01:09:27;4;4;4
70520;PMS5003;58442;52.716;23.560;2023-06-26T01:11:29;5;5;4
70520;PMS5003;58442;52.716;23.560;2023-06-26T01:13:31;2;2;2
70520;PMS5003;58442;52.716;23.560;2023-06-26T01:15:34;5;5;4
70520;PMS5003;58442;52.716;23.560;2023-06-26T01:17:42;3;3;3
70520;PMS5003;58442;52.716;23.560;2023-06-26T01:19:47;4;4;3
70520;PMS5003;58442;52.716;23.560;2023-06-26T01:22:01;4;4;3
70520;PMS5003;58442;52.716;23.560;2023-06-26T01:26:21;5;5;4
70520;PMS5003;58442;52.716;23.560;2023-06-26T01:28:23;3;3;3
70520;PMS5003;58442;52.716;23.560;2023-06-26T01:30:27;2;2;2
70520;PMS5003;58442;52.716;23.560;2023-06-26T01:32:29;3;3;3
70520;PMS5003;58442;52.716;23.560;2023-06-26T01:34:32;6;6;3
70520;PMS5003;58442;52.716;23.560;2023-06-26T01:36:33;2;2;2
70520;PMS5003;58442;52.716;23.560;2023-06-26T01:38:35;5;5;4
70520;PMS5003;58442;52.716;23.560;2023-06-26T01:40:36;4;4;3
70520;PMS5003;58442;52.716;23.560;2023-06-26T01:42:38;4;4;4
70520;PMS5003;58442;52.716;23.560;2023-06-26T01:44:48;5;5;4
70520;PMS5003;58442;52.716;23.560;2023-06-26T01:51:14;3;3;3
70520;PMS5003;58442;52.716;23.560;2023-06-26T01:53:20;5;5;4
70520;PMS5003;58442;52.716;23.560;2023-06-26T01:55:32;6;6;4
70520;PMS5003;58442;52.716;23.560;2023-06-26T01:57:49;5;5;4
70520;PMS5003;58442;52.716;23.560;2023-06-26T01:59:55;2;2;1
70520;PMS5003;58442;52.716;23.560;2023-06-26T02:01:57;3;3;3
70520;PMS5003;58442;52.716;23.560;2023-06-26T02:03:59;4;4;3
70520;PMS5003;58442;52.716;23.560;2023-06-26T02:06:04;5;5;5
70520;PMS5003;58442;52.716;23.560;2023-06-26T02:08:05;5;5;5
70520;PMS5003;58442;52.716;23.560;2023-06-26T02:10:07;5;5;5
70520;PMS5003;58442;52.716;23.560;2023-06-26T02:12:09;4;4;3
70520;PMS5003;58442;52.716;23.560;2023-06-26T02:14:18;4;4;3
70520;PMS5003;58442;52.716;23.560;2023-06-26T02:16:20;5;5;4
70520;PMS5003;58442;52.716;23.560;2023-06-26T02:18:21;4;4;4
70520;PMS5003;58442;52.716;23.560;2023-06-26T02:20:23;6;6;5
70520;PMS5003;58442;52.716;23.560;2023-06-26T02:22:33;4;4;4
70520;PMS5003;58442;52.716;23.560;2023-06-26T02:24:34;5;5;4
70520;PMS5003;58442;52.716;23.560;2023-06-26T02:26:36;6;6;4
70520;PMS5003;58442;52.716;23.560;2023-06-26T02:28:37;5;5;5
70520;PMS5003;58442;52.716;23.560;2023-06-26T02:30:48;5;5;5
70520;PMS5003;58442;52.716;23.560;2023-06-26T02:32:49;5;5;4
70520;PMS5003;58442;52.716;23.560;2023-06-26T02:34:51;5;5;4
70520;PMS5003;58442;52.716;23.560;2023-06-26T02:36:52;3;3;3
70520;PMS5003;58442;52.716;23.560;2023-06-26T02:39:03;6;6;5
70520;PMS5003;58442;52.716;23.560;2023-06-26T02:41:04;2;2;2
70520;PMS5003;58442;52.716;23.560;2023-06-26T02:43:06;4;4;4
70520;PMS5003;58442;52.716;23.560;2023-06-26T02:45:08;5;5;5
70520;PMS5003;58442;52.716;23.560;2023-06-26T02:47:18;5;5;4
70520;PMS5003;58442;52.716;23.560;2023-06-26T02:49:19;4;4;4
70520;PMS5003;58442;52.716;23.560;2023-06-26T02:51:20;2;2;2
70520;PMS5003;58442;52.716;23.560;2023-06-26T02:53:22;3;3;3
70520;PMS5003;58442;52.716;23.560;2023-06-26T02:55:33;4;4;3
70520;PMS5003;58442;52.716;23.560;2023-06-26T02:57:35;3;3;2
70520;PMS5003;58442;52.716;23.560;2023-06-26T02:59:36;4;4;3
70520;PMS5003;58442;52.716;23.560;2023-06-26T03:01:40;4;4;4
70520;PMS5003;58442;52.716;23.560;2023-06-26T03:03:47;7;7;4
70520;PMS5003;58442;52.716;23.560;2023-06-26T03:05:49;7;7;5
70520;PMS5003;58442;52.716;23.560;2023-06-26T03:07:50;4;4;4
70520;PMS5003;58442;52.716;23.560;2023-06-26T03:09:51;4;4;4
70520;PMS5003;58442;52.716;23.560;2023-06-26T03:12:02;1;1;1
70520;PMS5003;58442;52.716;23.560;2023-06-26T03:14:04;5;5;4
70520;PMS5003;58442;52.716;23.560;2023-06-26T03:16:05;5;5;5
70520;PMS5003;58442;52.716;23.560;2023-06-26T03:18:06;3;3;2
70520;PMS5003;58442;52.716;23.560;2023-06-26T03:20:17;3;3;2
70520;PMS5003;58442;52.716;23.560;2023-06-26T03:22:18;4;4;3
70520;PMS5003;58442;52.716;23.560;2023-06-26T03:24:20;2;2;2
70520;PMS5003;58442;52.716;23.560;2023-06-26T03:26:21;4;4;3
70520;PMS5003;58442;52.716;23.560;2023-06-26T03:28:32;3;3;2
70520;PMS5003;58442;52.716;23.560;2023-06-26T03:30:33;5;5;5
70520;PMS5003;58442;52.716;23.560;2023-06-26T03:32:34;3;3;3
70520;PMS5003;58442;52.716;23.560;2023-06-26T03:34:36;3;3;3
70520;PMS5003;58442;52.716;23.560;2023-06-26T03:36:46;5;5;4
70520;PMS5003;58442;52.716;23.560;2023-06-26T03:38:48;3;3;2
70520;PMS5003;58442;52.716;23.560;2023-06-26T03:40:49;4;4;3
70520;PMS5003;58442;52.716;23.560;2023-06-26T03:42:50;5;5;5
70520;PMS5003;58442;52.716;23.560;2023-06-26T03:45:01;5;5;5
70520;PMS5003;58442;52.716;23.560;2023-06-26T03:47:03;4;4;4
70520;PMS5003;58442;52.716;23.560;2023-06-26T03:49:05;5;5;5
70520;PMS5003;58442;52.716;23.560;2023-06-26T03:51:06;4;4;4
70520;PMS5003;58442;52.716;23.560;2023-06-26T03:53:16;2;2;2
70520;PMS5003;58442;52.716;23.560;2023-06-26T03:55:17;7;7;5
70520;PMS5003;58442;52.716;23.560;2023-06-26T03:57:19;9;9;7
70520;PMS5003;58442;52.716;23.560;2023-06-26T03:59:20;4;4;2
70520;PMS5003;58442;52.716;23.560;2023-06-26T04:01:31;6;6;5
70520;PMS5003;58442;52.716;23.560;2023-06-26T04:03:32;7;7;5
70520;PMS5003;58442;52.716;23.560;2023-06-26T04:05:34;10;10;7
70520;PMS5003;58442;52.716;23.560;2023-06-26T04:07:37;11;11;9
70520;PMS5003;58442;52.716;23.560;2023-06-26T04:09:46;11;11;8
70520;PMS5003;58442;52.716;23.560;2023-06-26T04:11:47;11;11;8
70520;PMS5003;58442;52.716;23.560;2023-06-26T04:13:48;10;8;7
70520;PMS5003;58442;52.716;23.560;2023-06-26T04:15:50;9;9;7
70520;PMS5003;58442;52.716;23.560;2023-06-26T04:18:00;8;8;7
70520;PMS5003;58442;52.716;23.560;2023-06-26T04:20:02;8;8;6
70520;PMS5003;58442;52.716;23.560;2023-06-26T04:22:07;10;10;7
70520;PMS5003;58442;52.716;23.560;2023-06-26T04:24:08;9;9;7
70520;PMS5003;58442;52.716;23.560;2023-06-26T04:26:15;7;7;5
70520;PMS5003;58442;52.716;23.560;2023-06-26T04:28:17;11;11;8
70520;PMS5003;58442;52.716;23.560;2023-06-26T04:30:18;11;11;7
70520;PMS5003;58442;52.716;23.560;2023-06-26T04:32:20;6;6;6
70520;PMS5003;58442;52.716;23.560;2023-06-26T04:34:30;11;11;9
70520;PMS5003;58442;52.716;23.560;2023-06-26T04:36:51;10;10;8
70520;PMS5003;58442;52.716;23.560;2023-06-26T04:38:53;10;10;8
70520;PMS5003;58442;52.716;23.560;2023-06-26T04:40:56;11;11;9
70520;PMS5003;58442;52.716;23.560;2023-06-26T04:42:57;13;13;11
70520;PMS5003;58442;52.716;23.560;2023-06-26T04:45:06;14;14;10
70520;PMS5003;58442;52.716;23.560;2023-06-26T04:47:08;14;14;10
70520;PMS5003;58442;52.716;23.560;2023-06-26T04:49:10;14;13;11
70520;PMS5003;58442;52.716;23.560;2023-06-26T04:51:11;19;19;13
70520;PMS5003;58442;52.716;23.560;2023-06-26T04:53:21;17;17;14
70520;PMS5003;58442;52.716;23.560;2023-06-26T04:55:23;10;10;7
70520;PMS5003;58442;52.716;23.560;2023-06-26T04:57:25;11;11;9
70520;PMS5003;58442;52.716;23.560;2023-06-26T04:59:26;15;15;12
70520;PMS5003;58442;52.716;23.560;2023-06-26T05:01:36;14;14;11
70520;PMS5003;58442;52.716;23.560;2023-06-26T05:03:40;11;11;9
70520;PMS5003;58442;52.716;23.560;2023-06-26T05:05:41;12;12;11
70520;PMS5003;58442;52.716;23.560;2023-06-26T05:07:42;16;16;12
70520;PMS5003;58442;52.716;23.560;2023-06-26T05:09:51;19;19;13
70520;PMS5003;58442;52.716;23.560;2023-06-26T05:11:52;17;17;14
70520;PMS5003;58442;52.716;23.560;2023-06-26T05:13:53;16;16;13
70520;PMS5003;58442;52.716;23.560;2023-06-26T05:15:55;17;17;14
70520;PMS5003;58442;52.716;23.560;2023-06-26T05:18:05;12;12;9
70520;PMS5003;58442;52.716;23.560;2023-06-26T05:20:07;11;11;9
70520;PMS5003;58442;52.716;23.560;2023-06-26T05:22:09;16;15;10
70520;PMS5003;58442;52.716;23.560;2023-06-26T05:24:13;10;10;8
70520;PMS5003;58442;52.716;23.560;2023-06-26T05:26:20;15;15;12
70520;PMS5003;58442;52.716;23.560;2023-06-26T05:28:22;12;12;10
70520;PMS5003;58442;52.716;23.560;2023-06-26T05:30:26;14;14;10
70520;PMS5003;58442;52.716;23.560;2023-06-26T05:32:28;11;11;9
70520;PMS5003;58442;52.716;23.560;2023-06-26T05:34:35;9;9;8
70520;PMS5003;58442;52.716;23.560;2023-06-26T05:36:37;8;8;6
70520;PMS5003;58442;52.716;23.560;2023-06-26T05:38:42;6;6;6
70520;PMS5003;58442;52.716;23.560;2023-06-26T05:40:44;9;9;7
70520;PMS5003;58442;52.716;23.560;2023-06-26T05:42:50;5;5;4
70520;PMS5003;58442;52.716;23.560;2023-06-26T05:44:51;13;12;6
70520;PMS5003;58442;52.716;23.560;2023-06-26T05:46:53;7;7;6
70520;PMS5003;58442;52.716;23.560;2023-06-26T05:48:54;7;7;6
70520;PMS5003;58442;52.716;23.560;2023-06-26T05:51:05;9;9;6
70520;PMS5003;58442;52.716;23.560;2023-06-26T05:53:07;7;7;6
70520;PMS5003;58442;52.716;23.560;2023-06-26T05:55:09;6;6;5
70520;PMS5003;58442;52.716;23.560;2023-06-26T05:57:11;7;7;6
70520;PMS5003;58442;52.716;23.560;2023-06-26T05:59:19;6;6;4
70520;PMS5003;58442;52.716;23.560;2023-06-26T06:01:22;6;6;5
70520;PMS5003;58442;52.716;23.560;2023-06-26T06:03:24;7;7;6
70520;PMS5003;58442;52.716;23.560;2023-06-26T06:05:26;5;5;5
70520;PMS5003;58442;52.716;23.560;2023-06-26T06:07:34;5;5;4
70520;PMS5003;58442;52.716;23.560;2023-06-26T06:09:36;7;7;6
70520;PMS5003;58442;52.716;23.560;2023-06-26T06:11:38;4;4;4
70520;PMS5003;58442;52.716;23.560;2023-06-26T06:13:39;6;6;5
70520;PMS5003;58442;52.716;23.560;2023-06-26T06:15:49;6;6;4
70520;PMS5003;58442;52.716;23.560;2023-06-26T06:17:50;3;3;3
70520;PMS5003;58442;52.716;23.560;2023-06-26T06:19:51;8;8;6
70520;PMS5003;58442;52.716;23.560;2023-06-26T06:21:53;7;7;5
70520;PMS5003;58442;52.716;23.560;2023-06-26T06:24:04;4;4;4
70520;PMS5003;58442;52.716;23.560;2023-06-26T06:26:07;5;5;4
70520;PMS5003;58442;52.716;23.560;2023-06-26T06:28:08;4;4;3
70520;PMS5003;58442;52.716;23.560;2023-06-26T06:30:10;7;7;6
70520;PMS5003;58442;52.716;23.560;2023-06-26T06:32:18;2;2;2
70520;PMS5003;58442;52.716;23.560;2023-06-26T06:34:19;5;5;5
70520;PMS5003;58442;52.716;23.560;2023-06-26T06:36:21;3;3;2
70520;PMS5003;58442;52.716;23.560;2023-06-26T06:38:22;6;6;5
70520;PMS5003;58442;52.716;23.560;2023-06-26T06:40:33;5;5;5
70520;PMS5003;58442;52.716;23.560;2023-06-26T06:42:34;1;1;1
70520;PMS5003;58442;52.716;23.560;2023-06-26T06:44:36;4;4;3
70520;PMS5003;58442;52.716;23.560;2023-06-26T06:46:37;4;4;4
70520;PMS5003;58442;52.716;23.560;2023-06-26T06:48:47;4;4;3
70520;PMS5003;58442;52.716;23.560;2023-06-26T06:50:50;6;6;5
70520;PMS5003;58442;52.716;23.560;2023-06-26T06:52:51;3;3;3
70520;PMS5003;58442;52.716;23.560;2023-06-26T06:54:53;3;3;3
70520;PMS5003;58442;52.716;23.560;2023-06-26T06:57:02;1;1;1
70520;PMS5003;58442;52.716;23.560;2023-06-26T06:59:03;3;3;3
70520;PMS5003;58442;52.716;23.560;2023-06-26T07:01:05;4;4;3
70520;PMS5003;58442;52.716;23.560;2023-06-26T07:03:06;1;1;1
70520;PMS5003;58442;52.716;23.560;2023-06-26T07:05:17;3;3;3
70520;PMS5003;58442;52.716;23.560;2023-06-26T07:07:18;3;3;3
70520;PMS5003;58442;52.716;23.560;2023-06-26T07:09:20;3;3;3
70520;PMS5003;58442;52.716;23.560;2023-06-26T07:11:21;5;5;4
70520;PMS5003;58442;52.716;23.560;2023-06-26T07:13:31;3;3;3
70520;PMS5003;58442;52.716;23.560;2023-06-26T07:15:33;4;4;3
70520;PMS5003;58442;52.716;23.560;2023-06-26T07:17:34;5;5;4
70520;PMS5003;58442;52.716;23.560;2023-06-26T07:19:38;5;5;4
70520;PMS5003;58442;52.716;23.560;2023-06-26T07:21:46;3;3;3
70520;PMS5003;58442;52.716;23.560;2023-06-26T07:23:47;3;3;3
70520;PMS5003;58442;52.716;23.560;2023-06-26T07:25:49;5;5;5
70520;PMS5003;58442;52.716;23.560;2023-06-26T07:27:50;3;3;3
70520;PMS5003;58442;52.716;23.560;2023-06-26T07:30:01;6;6;4
70520;PMS5003;58442;52.716;23.560;2023-06-26T07:32:03;3;3;2
70520;PMS5003;58442;52.716;23.560;2023-06-26T07:34:04;6;6;5
70520;PMS5003;58442;52.716;23.560;2023-06-26T07:36:05;4;4;4
70520;PMS5003;58442;52.716;23.560;2023-06-26T07:38:15;4;4;4
70520;PMS5003;58442;52.716;23.560;2023-06-26T07:40:17;3;3;3
70520;PMS5003;58442;52.716;23.560;2023-06-26T07:42:18;5;5;4
70520;PMS5003;58442;52.716;23.560;2023-06-26T07:44:19;5;5;4
70520;PMS5003;58442;52.716;23.560;2023-06-26T07:46:30;3;3;3
70520;PMS5003;58442;52.716;23.560;2023-06-26T07:48:31;3;3;3
70520;PMS5003;58442;52.716;23.560;2023-06-26T07:50:33;5;5;4
70520;PMS5003;58442;52.716;23.560;2023-06-26T07:52:34;4;4;4
70520;PMS5003;58442;52.716;23.560;2023-06-26T07:54:45;4;4;4
70520;PMS5003;58442;52.716;23.560;2023-06-26T07:58:55;6;6;5
70520;PMS5003;58442;52.716;23.560;2023-06-26T08:00:58;4;4;3
70520;PMS5003;58442;52.716;23.560;2023-06-26T08:02:59;4;4;4
70520;PMS5003;58442;52.716;23.560;2023-06-26T08:05:01;2;2;2
70520;PMS5003;58442;52.716;23.560;2023-06-26T08:07:02;5;5;5
70520;PMS5003;58442;52.716;23.560;2023-06-26T08:09:04;6;6;4
70520;PMS5003;58442;52.716;23.560;2023-06-26T08:11:14;5;5;4
70520;PMS5003;58442;52.716;23.560;2023-06-26T08:13:15;4;4;4
70520;PMS5003;58442;52.716;23.560;2023-06-26T08:15:17;4;4;4
70520;PMS5003;58442;52.716;23.560;2023-06-26T08:17:18;4;4;3
70520;PMS5003;58442;52.716;23.560;2023-06-26T08:19:28;3;3;3
70520;PMS5003;58442;52.716;23.560;2023-06-26T08:21:30;4;4;3
70520;PMS5003;58442;52.716;23.560;2023-06-26T08:23:31;5;5;5
70520;PMS5003;58442;52.716;23.560;2023-06-26T08:25:33;5;5;4
70520;PMS5003;58442;52.716;23.560;2023-06-26T08:27:43;3;3;3
70520;PMS5003;58442;52.716;23.560;2023-06-26T08:29:44;3;3;2
70520;PMS5003;58442;52.716;23.560;2023-06-26T08:31:46;5;5;4
70520;PMS5003;58442;52.716;23.560;2023-06-26T08:33:47;3;3;2
70520;PMS5003;58442;52.716;23.560;2023-06-26T08:35:58;4;4;4
70520;PMS5003;58442;52.716;23.560;2023-06-26T08:37:59;4;4;4
70520;PMS5003;58442;52.716;23.560;2023-06-26T08:40:00;3;3;2
70520;PMS5003;58442;52.716;23.560;2023-06-26T08:42:02;2;2;2
70520;PMS5003;58442;52.716;23.560;2023-06-26T08:44:12;4;4;4
70520;PMS5003;58442;52.716;23.560;2023-06-26T08:46:14;1;1;1
70520;PMS5003;58442;52.716;23.560;2023-06-26T08:48:15;3;3;2
70520;PMS5003;58442;52.716;23.560;2023-06-26T08:50:17;4;4;3
70520;PMS5003;58442;52.716;23.560;2023-06-26T08:52:30;3;3;3
70520;PMS5003;58442;52.716;23.560;2023-06-26T08:54:37;3;3;2
70520;PMS5003;58442;52.716;23.560;2023-06-26T08:56:48;1;1;1
70520;PMS5003;58442;52.716;23.560;2023-06-26T08:58:51;4;4;3
70520;PMS5003;58442;52.716;23.560;2023-06-26T09:00:53;3;3;3
70520;PMS5003;58442;52.716;23.560;2023-06-26T09:02:56;2;2;2
70520;PMS5003;58442;52.716;23.560;2023-06-26T09:04:59;2;2;2
70520;PMS5003;58442;52.716;23.560;2023-06-26T09:07:00;2;2;2
70520;PMS5003;58442;52.716;23.560;2023-06-26T09:09:06;3;3;2
70520;PMS5003;58442;52.716;23.560;2023-06-26T09:11:08;3;3;3
70520;PMS5003;58442;52.716;23.560;2023-06-26T09:13:09;3;3;2
70520;PMS5003;58442;52.716;23.560;2023-06-26T09:15:13;3;3;3
70520;PMS5003;58442;52.716;23.560;2023-06-26T09:19:44;3;3;2
70520;PMS5003;58442;52.716;23.560;2023-06-26T09:21:49;3;3;3
70520;PMS5003;58442;52.716;23.560;2023-06-26T09:23:52;4;4;4
70520;PMS5003;58442;52.716;23.560;2023-06-26T09:25:55;4;4;3
70520;PMS5003;58442;52.716;23.560;2023-06-26T09:27:57;3;3;2
70520;PMS5003;58442;52.716;23.560;2023-06-26T09:29:58;5;5;4
70520;PMS5003;58442;52.716;23.560;2023-06-26T09:32:00;3;3;2
70520;PMS5003;58442;52.716;23.560;2023-06-26T09:34:01;4;4;4
70520;PMS5003;58442;52.716;23.560;2023-06-26T09:38:33;6;6;5
70520;PMS5003;58442;52.716;23.560;2023-06-26T09:40:36;5;5;4
70520;PMS5003;58442;52.716;23.560;2023-06-26T09:42:38;2;2;2
70520;PMS5003;58442;52.716;23.560;2023-06-26T09:44:43;3;3;2
70520;PMS5003;58442;52.716;23.560;2023-06-26T09:46:47;4;4;3
70520;PMS5003;58442;52.716;23.560;2023-06-26T09:48:49;4;4;3
70520;PMS5003;58442;52.716;23.560;2023-06-26T09:50:51;3;3;3
70520;PMS5003;58442;52.716;23.560;2023-06-26T09:52:52;3;3;3
70520;PMS5003;58442;52.716;23.560;2023-06-26T09:57:13;3;3;3
70520;PMS5003;58442;52.716;23.560;2023-06-26T09:59:19;2;2;2
70520;PMS5003;58442;52.716;23.560;2023-06-26T10:01:21;4;4;3
70520;PMS5003;58442;52.716;23.560;2023-06-26T10:03:23;4;4;4
70520;PMS5003;58442;52.716;23.560;2023-06-26T10:05:24;3;3;3
70520;PMS5003;58442;52.716;23.560;2023-06-26T10:07:26;4;4;4
70520;PMS5003;58442;52.716;23.560;2023-06-26T10:09:28;4;4;4
70520;PMS5003;58442;52.716;23.560;2023-06-26T10:11:41;4;4;2
70520;PMS5003;58442;52.716;23.560;2023-06-26T10:13:59;5;5;4
70520;PMS5003;58442;52.716;23.560;2023-06-26T10:16:01;3;3;2
70520;PMS5003;58442;52.716;23.560;2023-06-26T10:18:03;4;4;3
70520;PMS5003;58442;52.716;23.560;2023-06-26T10:20:06;4;4;4
70520;PMS5003;58442;52.716;23.560;2023-06-26T10:22:17;4;4;3
70520;PMS5003;58442;52.716;23.560;2023-06-26T10:24:21;4;4;4
70520;PMS5003;58442;52.716;23.560;2023-06-26T10:26:24;3;3;3
70520;PMS5003;58442;52.716;23.560;2023-06-26T10:28:29;5;5;4
70520;PMS5003;58442;52.716;23.560;2023-06-26T10:30:34;3;3;3
70520;PMS5003;58442;52.716;23.560;2023-06-26T10:32:38;2;2;2
70520;PMS5003;58442;52.716;23.560;2023-06-26T10:34:41;2;2;2
70520;PMS5003;58442;52.716;23.560;2023-06-26T10:36:43;4;4;4
70520;PMS5003;58442;52.716;23.560;2023-06-26T10:38:48;5;5;4
70520;PMS5003;58442;52.716;23.560;2023-06-26T10:40:54;4;4;3
70520;PMS5003;58442;52.716;23.560;2023-06-26T10:47:40;3;3;3
70520;PMS5003;58442;52.716;23.560;2023-06-26T10:49:31;2;2;2
70520;PMS5003;58442;52.716;23.560;2023-06-26T10:53:56;4;4;2
70520;PMS5003;58442;52.716;23.560;2023-06-26T10:55:59;4;4;3
70520;PMS5003;58442;52.716;23.560;2023-06-26T10:58:01;3;3;3
70520;PMS5003;58442;52.716;23.560;2023-06-26T11:02:12;5;5;4
70520;PMS5003;58442;52.716;23.560;2023-06-26T11:04:14;4;4;3
70520;PMS5003;58442;52.716;23.560;2023-06-26T11:06:19;5;5;4
70520;PMS5003;58442;52.716;23.560;2023-06-26T11:08:22;5;5;5
70520;PMS5003;58442;52.716;23.560;2023-06-26T11:13:00;4;4;3
70520;PMS5003;58442;52.716;23.560;2023-06-26T11:15:08;4;4;4
70520;PMS5003;58442;52.716;23.560;2023-06-26T11:17:11;3;3;2
70520;PMS5003;58442;52.716;23.560;2023-06-26T11:19:17;3;3;3
70520;PMS5003;58442;52.716;23.560;2023-06-26T11:21:19;4;4;3
70520;PMS5003;58442;52.716;23.560;2023-06-26T11:23:23;4;4;4
70520;PMS5003;58442;52.716;23.560;2023-06-26T11:25:29;4;4;4
70520;PMS5003;58442;52.716;23.560;2023-06-26T11:27:42;4;4;3
70520;PMS5003;58442;52.716;23.560;2023-06-26T11:29:47;4;4;4
70520;PMS5003;58442;52.716;23.560;2023-06-26T11:31:58;5;5;4
70520;PMS5003;58442;52.716;23.560;2023-06-26T11:34:05;5;5;5
70520;PMS5003;58442;52.716;23.560;2023-06-26T11:36:14;4;4;3
70520;PMS5003;58442;52.716;23.560;2023-06-26T11:38:15;4;4;3
70520;PMS5003;58442;52.716;23.560;2023-06-26T11:40:18;5;5;5
70520;PMS5003;58442;52.716;23.560;2023-06-26T11:42:20;4;4;4
70520;PMS5003;58442;52.716;23.560;2023-06-26T11:44:22;4;4;4
70520;PMS5003;58442;52.716;23.560;2023-06-26T11:46:23;4;4;4
70520;PMS5003;58442;52.716;23.560;2023-06-26T11:48:32;3;3;3
70520;PMS5003;58442;52.716;23.560;2023-06-26T11:50:36;4;4;3
70520;PMS5003;58442;52.716;23.560;2023-06-26T11:52:40;4;4;4
70520;PMS5003;58442;52.716;23.560;2023-06-26T11:54:42;4;4;3
70520;PMS5003;58442;52.716;23.560;2023-06-26T11:56:51;5;5;4
70520;PMS5003;58442;52.716;23.560;2023-06-26T11:59:11;4;4;4
70520;PMS5003;58442;52.716;23.560;2023-06-26T12:01:15;3;3;3
70520;PMS5003;58442;52.716;23.560;2023-06-26T12:03:17;4;4;3
70520;PMS5003;58442;52.716;23.560;2023-06-26T12:05:19;3;3;3
70520;PMS5003;58442;52.716;23.560;2023-06-26T12:07:23;4;4;4
70520;PMS5003;58442;52.716;23.560;2023-06-26T12:09:24;4;4;3
70520;PMS5003;58442;52.716;23.560;2023-06-26T12:11:27;5;5;4
70520;PMS5003;58442;52.716;23.560;2023-06-26T12:13:30;5;5;4
70520;PMS5003;58442;52.716;23.560;2023-06-26T12:15:37;5;5;4
70520;PMS5003;58442;52.716;23.560;2023-06-26T12:17:39;6;6;6
70520;PMS5003;58442;52.716;23.560;2023-06-26T12:19:43;4;4;4
70520;PMS5003;58442;52.716;23.560;2023-06-26T12:21:49;2;2;2
70520;PMS5003;58442;52.716;23.560;2023-06-26T12:23:58;4;4;4
70520;PMS5003;58442;52.716;23.560;2023-06-26T12:26:15;2;2;2
70520;PMS5003;58442;52.716;23.560;2023-06-26T12:28:16;4;4;4
70520;PMS5003;58442;52.716;23.560;2023-06-26T12:30:18;4;4;3
70520;PMS5003;58442;52.716;23.560;2023-06-26T12:32:23;6;6;5
70520;PMS5003;58442;52.716;23.560;2023-06-26T12:38:48;4;4;4
70520;PMS5003;58442;52.716;23.560;2023-06-26T12:40:50;5;5;4
70520;PMS5003;58442;52.716;23.560;2023-06-26T12:43:00;5;5;4
70520;PMS5003;58442;52.716;23.560;2023-06-26T12:45:10;5;5;4
70520;PMS5003;58442;52.716;23.560;2023-06-26T12:47:14;7;7;5
70520;PMS5003;58442;52.716;23.560;2023-06-26T12:49:16;6;6;4
70520;PMS5003;58442;52.716;23.560;2023-06-26T12:51:19;4;4;4
70520;PMS5003;58442;52.716;23.560;2023-06-26T12:53:25;3;3;3
70520;PMS5003;58442;52.716;23.560;2023-06-26T12:55:27;6;6;5
70520;PMS5003;58442;52.716;23.560;2023-06-26T12:57:29;3;3;3
70520;PMS5003;58442;52.716;23.560;2023-06-26T12:59:40;4;4;3
70520;PMS5003;58442;52.716;23.560;2023-06-26T13:01:39;4;4;3
70520;PMS5003;58442;52.716;23.560;2023-06-26T13:03:41;5;5;4
70520;PMS5003;58442;52.716;23.560;2023-06-26T13:05:42;6;6;5
70520;PMS5003;58442;52.716;23.560;2023-06-26T13:07:46;4;4;4
70520;PMS5003;58442;52.716;23.560;2023-06-26T13:09:47;4;4;3
70520;PMS5003;58442;52.716;23.560;2023-06-26T13:11:49;6;6;5
70520;PMS5003;58442;52.716;23.560;2023-06-26T13:13:51;3;3;2
70520;PMS5003;58442;52.716;23.560;2023-06-26T13:16:01;4;4;4
70520;PMS5003;58442;52.716;23.560;2023-06-26T13:18:03;4;4;4
70520;PMS5003;58442;52.716;23.560;2023-06-26T13:20:05;3;3;3
70520;PMS5003;58442;52.716;23.560;2023-06-26T13:22:09;5;5;4
70520;PMS5003;58442;52.716;23.560;2023-06-26T13:24:15;5;5;4
70520;PMS5003;58442;52.716;23.560;2023-06-26T13:26:17;3;3;2
70520;PMS5003;58442;52.716;23.560;2023-06-26T13:28:20;5;5;4
70520;PMS5003;58442;52.716;23.560;2023-06-26T13:30:21;5;5;5
70520;PMS5003;58442;52.716;23.560;2023-06-26T13:32:30;5;5;5
70520;PMS5003;58442;52.716;23.560;2023-06-26T13:34:31;6;6;5
70520;PMS5003;58442;52.716;23.560;2023-06-26T13:36:35;4;4;4
70520;PMS5003;58442;52.716;23.560;2023-06-26T13:38:39;3;3;3
70520;PMS5003;58442;52.716;23.560;2023-06-26T13:40:44;4;4;4
70520;PMS5003;58442;52.716;23.560;2023-06-26T13:42:46;6;6;5
70520;PMS5003;58442;52.716;23.560;2023-06-26T13:44:47;5;5;4
70520;PMS5003;58442;52.716;23.560;2023-06-26T13:46:50;5;5;4
70520;PMS5003;58442;52.716;23.560;2023-06-26T13:48:59;4;4;4
70520;PMS5003;58442;52.716;23.560;2023-06-26T13:51:00;4;4;3
70520;PMS5003;58442;52.716;23.560;2023-06-26T13:53:02;4;4;3
70520;PMS5003;58442;52.716;23.560;2023-06-26T13:55:03;5;5;4
70520;PMS5003;58442;52.716;23.560;2023-06-26T13:57:13;5;5;4
70520;PMS5003;58442;52.716;23.560;2023-06-26T13:59:15;5;5;4
70520;PMS5003;58442;52.716;23.560;2023-06-26T14:01:18;4;4;3
70520;PMS5003;58442;52.716;23.560;2023-06-26T14:03:20;6;6;5
70520;PMS5003;58442;52.716;23.560;2023-06-26T14:05:31;5;5;3
70520;PMS5003;58442;52.716;23.560;2023-06-26T14:07:32;5;5;4
70520;PMS5003;58442;52.716;23.560;2023-06-26T14:09:34;3;3;3
70520;PMS5003;58442;52.716;23.560;2023-06-26T14:11:35;4;4;4